Home   Weather   Germany   Rodgau   Past weeks
Flag for Germany

Past Weather in Rodgau, Hesse, Germany — Yesterday and Last 2 Weeks

Currently: 25 °F. Clear. (Weather station: Frankfurt-M-Flughafen Airport, Germany). See more current weather

Past Weather in Rodgau — Graph

°F

Rodgau Temperature Yesterday

Maximum temperature yesterday: 48 °F (at 2:50 pm)
Minimum temperature yesterday: 25 °F (at 6:50 am)
Average temperature yesterday: 37 °F

High & Low Weather Summary for the Past Weeks

 TemperatureHumidityPressure
High66 °F (Feb 23, 3:50 pm)100% (Feb 21, 5:50 am)30.69 "Hg (Feb 21, 5:50 am)
Low25 °F (Mar 7, 6:50 am)29% (Mar 7, 2:50 pm)30.01 "Hg (Feb 21, 3:20 pm)
Average43 °F72%30.38 "Hg
* Reported Feb 21 5:20 am — Mar 8 5:50 am, Rodgau. Weather by CustomWeather, © 2021

Note: Actual official high and low records may vary slightly from our data, if they occured in-between our weather recording intervals... More about our weather records

Rodgau Weather History for the Previous 24 Hours

Scroll right to see more
 ConditionsComfort  
Time TempWeatherWind HumidityBarometerVisibility
5:50 am
Mon, Mar 8
25 °FClear.2 mph86%30.18 "Hg10 mi
5:20 am25 °FPassing clouds.3 mph86%30.18 "HgN/A
4:50 am25 °FClear.2 mph86%30.15 "Hg10 mi
4:20 am25 °FClear.1 mph86%30.15 "Hg10 mi
3:50 am25 °FClear.2 mph86%30.15 "Hg10 mi
3:20 am27 °FClear.2 mph80%30.15 "Hg10 mi
2:50 am27 °FClear.2 mph80%30.15 "Hg10 mi
2:20 am27 °FClear.2 mph80%30.15 "Hg10 mi
1:50 am28 °FClear.2 mph80%30.18 "Hg10 mi
1:20 am30 °FClear.5 mph75%30.18 "Hg10 mi
12:50 am34 °FClear.5 mph65%30.18 "Hg10 mi
12:20 am34 °FClear.6 mph65%30.18 "Hg10 mi
11:50 pm
Sun, Mar 7
36 °FClear.6 mph65%30.18 "Hg10 mi
11:20 pm36 °FClear.9 mph65%30.18 "Hg10 mi
10:50 pm36 °FClear.9 mph65%30.18 "Hg10 mi
10:20 pm36 °FClear.10 mph65%30.18 "Hg10 mi
9:50 pm37 °FClear.12 mph60%30.15 "Hg10 mi
9:20 pm37 °FClear.12 mph60%30.15 "Hg10 mi
8:50 pm39 °FClear.16 mph61%30.15 "Hg10 mi
8:20 pm39 °FClear.12 mph56%30.15 "Hg10 mi
7:50 pm37 °FClear.3 mph52%30.12 "Hg10 mi
7:20 pm37 °FClear.2 mph52%30.12 "Hg10 mi
6:50 pm39 °FClear.2 mph48%30.12 "Hg10 mi
6:20 pm43 °FClear.5 mph42%30.12 "Hg10 mi
5:50 pm46 °FSunny.6 mph34%30.12 "Hg10 mi
5:20 pm48 °FPassing clouds.3 mph34%30.12 "HgN/A
4:50 pm48 °FSunny.5 mph34%30.12 "Hg10 mi
4:20 pm48 °FPassing clouds.3 mph34%30.12 "HgN/A
3:50 pm48 °FPassing clouds.5 mph32%30.12 "HgN/A
3:20 pm48 °FSunny.2 mph34%30.15 "Hg10 mi
2:50 pm48 °FSunny.6 mph29%30.15 "Hg10 mi
2:20 pm46 °FSunny.3 mph32%30.15 "Hg10 mi
1:20 pm46 °FSunny.2 mph34%30.18 "Hg10 mi
12:50 pm46 °FSunny.3 mph34%30.21 "Hg10 mi
12:20 pm46 °FPassing clouds.6 mph34%30.21 "HgN/A
11:50 am43 °FPassing clouds.8 mph39%30.21 "HgN/A
11:20 am43 °FPassing clouds.6 mph42%30.24 "HgN/A
10:50 am41 °FPassing clouds.7 mph45%30.24 "HgN/A
10:20 am39 °FPassing clouds.7 mph52%30.27 "HgN/A
9:50 am37 °FPassing clouds.5 mph56%30.27 "HgN/A
9:20 am36 °FPassing clouds.5 mph60%30.27 "HgN/A
8:50 am34 °FPassing clouds.5 mph65%30.27 "HgN/A
8:20 am30 °FSunny.6 mph75%30.27 "Hg10 mi
7:50 am28 °FSunny.6 mph74%30.30 "Hg10 mi
7:20 am25 °FSunny.7 mph80%30.30 "Hg10 mi
6:50 am25 °FClear.6 mph80%30.30 "Hg10 mi
6:20 am27 °FClear.6 mph74%30.30 "Hg10 mi
Weather by CustomWeather, © 2021

See weather overview